Time;durP1;ratioP1;P1;durP2;ratioP2;P2;SDS_P1;SDS_P2;PMS_P1;PMS_P2;Temp;Humidity;BMP_temperature;BMP_pressure;BME280_temperature;BME280_humidity;BME280_pressure;Samples;Min_cycle;Max_cycle;Signal;HPM_P1;HPM_P2
2022/01/18 00:01:34;;;;;;;2.70;2.50;;;16.50;63.00;;;;;;4952916;28;20059;-23
2022/01/18 00:04:00;;;;;;;2.75;2.55;;;16.40;63.00;;;;;;4954555;28;20031;-20
2022/01/18 00:06:26;;;;;;;2.67;2.58;;;16.50;62.90;;;;;;4950161;28;20039;-23
2022/01/18 00:08:51;;;;;;;2.58;2.38;;;16.50;62.90;;;;;;4952599;28;20043;-22
2022/01/18 00:11:19;;;;;;;3.17;2.67;;;16.50;62.90;;;;;;4946421;28;20048;-19
2022/01/18 00:13:48;;;;;;;2.20;2.10;;;16.50;62.90;;;;;;4949576;28;20035;-20
2022/01/18 00:16:30;;;;;;;2.58;2.40;;;16.40;62.90;;;;;;4949862;29;20040;-21
2022/01/18 00:18:59;;;;;;;2.20;2.10;;;16.50;63.00;;;;;;4951097;28;20100;-20
2022/01/18 00:21:37;;;;;;;2.40;2.30;;;16.40;63.00;;;;;;4951154;29;20093;-20
2022/01/18 00:24:03;;;;;;;2.85;2.65;;;16.40;63.10;;;;;;4947531;29;20423;-20
2022/01/18 00:26:31;;;;;;;3.10;2.40;;;16.40;63.20;;;;;;4944228;28;20040;-22
2022/01/18 00:29:02;;;;;;;2.53;2.42;;;16.40;63.30;;;;;;4937174;28;20039;-18
2022/01/18 00:36:40;;;;;;;2.30;2.20;;;16.40;62.90;;;;;;4955676;28;20130;-21
2022/01/18 00:39:10;;;;;;;2.58;2.47;;;16.40;63.20;;;;;;4956193;28;20631;-18
2022/01/18 00:41:36;;;;;;;2.80;2.60;;;16.30;63.10;;;;;;4955250;28;20039;-19
2022/01/18 00:44:02;;;;;;;2.38;2.17;;;16.40;63.20;;;;;;4956404;28;20039;-18
2022/01/18 00:46:28;;;;;;;2.30;2.20;;;16.40;63.10;;;;;;4954929;28;20055;-21
2022/01/18 00:48:55;;;;;;;2.28;2.17;;;16.30;63.20;;;;;;4946837;28;20052;-21
2022/01/18 00:51:21;;;;;;;2.83;2.40;;;16.30;63.10;;;;;;4936638;28;20043;-20
2022/01/18 00:53:47;;;;;;;2.47;2.38;;;16.30;63.00;;;;;;4936947;28;20072;-21
2022/01/18 00:58:42;;;;;;;2.13;2.03;;;16.30;63.10;;;;;;4936366;28;20079;-19
2022/01/18 01:01:08;;;;;;;2.10;1.90;;;16.30;63.20;;;;;;4935800;28;20055;-21
2022/01/18 01:03:34;;;;;;;2.10;2.00;;;16.30;63.10;;;;;;4957170;28;20385;-19
2022/01/18 01:06:00;;;;;;;2.10;2.00;;;16.30;63.00;;;;;;4959970;28;20097;-18
2022/01/18 01:08:26;;;;;;;1.90;1.80;;;16.30;63.10;;;;;;4959109;28;20051;-21
2022/01/18 01:10:52;;;;;;;1.90;1.80;;;16.20;63.20;;;;;;4959863;28;20071;-21
2022/01/18 01:13:18;;;;;;;2.05;1.95;;;16.30;63.10;;;;;;4959740;28;20053;-22
2022/01/18 01:16:42;;;;;;;2.10;2.00;;;16.20;63.20;;;;;;4953944;28;20047;-22
2022/01/18 01:34:48;;;;;;;2.17;2.08;;;16.30;62.90;;;;;;4959808;28;20050;-21
2022/01/18 01:41:47;;;;;;;1.90;1.80;;;16.20;63.00;;;;;;4959978;28;20047;-21
2022/01/18 01:45:31;;;;;;;1.73;1.63;;;16.30;62.80;;;;;;4959489;28;20043;-20
2022/01/18 01:47:59;;;;;;;2.15;2.03;;;16.20;62.80;;;;;;4960269;28;20070;-19
2022/01/18 01:50:27;;;;;;;2.00;1.90;;;16.30;62.80;;;;;;4959595;28;20035;-19
2022/01/18 01:52:56;;;;;;;1.90;1.80;;;16.20;62.80;;;;;;4959943;28;20403;-20
2022/01/18 01:55:22;;;;;;;1.80;1.70;;;16.20;63.00;;;;;;4959492;28;20164;-20
2022/01/18 01:57:48;;;;;;;2.20;1.90;;;16.20;62.90;;;;;;4959252;28;20051;-19
2022/01/18 02:00:16;;;;;;;2.00;1.90;;;16.20;62.80;;;;;;4953467;28;20043;-21
2022/01/18 02:02:42;;;;;;;1.80;1.70;;;16.20;62.80;;;;;;4939367;28;20524;-21
2022/01/18 02:05:08;;;;;;;1.85;1.75;;;16.20;62.80;;;;;;4939766;28;20044;-21
2022/01/18 02:07:33;;;;;;;1.85;1.75;;;16.20;62.90;;;;;;4939100;28;20045;-21
2022/01/18 02:09:59;;;;;;;1.75;1.65;;;16.20;62.90;;;;;;4940316;28;20110;-21
2022/01/18 02:12:25;;;;;;;2.03;1.92;;;16.20;62.90;;;;;;4940613;28;20161;-20
2022/01/18 02:14:57;;;;;;;1.77;1.67;;;16.20;62.90;;;;;;4941833;28;20043;-18
2022/01/18 02:22:52;;;;;;;1.90;1.80;;;16.20;63.00;;;;;;4958900;28;20058;-22
2022/01/18 02:25:18;;;;;;;1.65;1.42;;;16.10;62.90;;;;;;4958899;28;20040;-19
2022/01/18 02:27:43;;;;;;;2.03;1.92;;;16.10;63.10;;;;;;4958516;28;20134;-22
2022/01/18 02:30:09;;;;;;;1.80;1.70;;;16.10;63.10;;;;;;4959384;28;20143;-20
2022/01/18 02:32:35;;;;;;;2.00;1.90;;;16.10;63.00;;;;;;4958481;28;20104;-22
2022/01/18 02:35:00;;;;;;;1.88;1.77;;;16.10;63.00;;;;;;4958941;28;20051;-18
2022/01/18 02:37:26;;;;;;;1.88;1.77;;;16.10;63.10;;;;;;4958852;28;20047;-18
2022/01/18 02:39:52;;;;;;;1.95;1.85;;;16.10;63.10;;;;;;4958185;28;20798;-21
2022/01/18 02:42:28;;;;;;;1.70;1.40;;;16.10;63.20;;;;;;4958861;28;20051;-21
2022/01/18 02:44:54;;;;;;;1.60;1.50;;;16.00;63.20;;;;;;4958604;28;20143;-19
2022/01/18 02:47:20;;;;;;;1.70;1.60;;;16.10;63.20;;;;;;4969564;28;20051;-20
2022/01/18 02:49:47;;;;;;;1.60;1.50;;;16.10;63.20;;;;;;4958493;28;20548;-20
2022/01/18 02:52:13;;;;;;;1.90;1.80;;;16.10;63.30;;;;;;4959062;28;20051;-21
2022/01/18 02:54:39;;;;;;;1.77;1.67;;;16.00;63.20;;;;;;4958119;28;20043;-20
2022/01/18 02:57:10;;;;;;;1.90;1.80;;;16.00;63.20;;;;;;4959012;28;20055;-21
2022/01/18 03:05:10;;;;;;;1.45;1.40;;;16.00;63.20;;;;;;4938921;28;20054;-22
2022/01/18 03:07:36;;;;;;;1.80;1.70;;;16.00;63.20;;;;;;4938815;28;20047;-19
2022/01/18 03:10:03;;;;;;;2.08;1.98;;;16.00;63.20;;;;;;4939444;28;20044;-18
2022/01/18 03:12:28;;;;;;;1.95;1.85;;;16.00;63.20;;;;;;4939435;28;20101;-21
2022/01/18 03:14:54;;;;;;;1.85;1.75;;;16.00;63.30;;;;;;4941938;28;20039;-21
2022/01/18 03:17:19;;;;;;;2.10;2.00;;;16.00;63.20;;;;;;4958545;28;20046;-21
2022/01/18 03:19:45;;;;;;;1.35;1.35;;;16.00;63.20;;;;;;4958011;28;20086;-21
2022/01/18 03:22:11;;;;;;;1.58;1.48;;;16.00;63.20;;;;;;4958548;28;20409;-20
2022/01/18 03:30:06;;;;;;;1.80;1.70;;;16.00;63.10;;;;;;4939134;28;20102;-21
2022/01/18 03:32:32;;;;;;;1.60;1.50;;;16.00;63.10;;;;;;4957627;28;20066;-21
2022/01/18 03:34:57;;;;;;;1.60;1.50;;;16.00;63.20;;;;;;4958136;28;20055;-20
2022/01/18 03:37:23;;;;;;;1.73;1.63;;;16.00;63.20;;;;;;4957778;28;20093;-22
2022/01/18 03:39:48;;;;;;;1.77;1.67;;;16.00;63.20;;;;;;4957268;28;20381;-21
2022/01/18 03:42:37;;;;;;;1.63;1.52;;;15.90;63.20;;;;;;4958160;28;20154;-19
2022/01/18 03:45:08;;;;;;;1.85;1.75;;;15.90;63.10;;;;;;4957715;28;20047;-19
2022/01/18 03:47:33;;;;;;;1.67;1.58;;;16.00;63.10;;;;;;4957430;28;20404;-19
2022/01/18 03:49:59;;;;;;;1.60;1.50;;;16.00;63.20;;;;;;4958061;28;20043;-21
2022/01/18 03:52:25;;;;;;;1.45;1.40;;;15.90;63.10;;;;;;4957769;28;21052;-20
2022/01/18 03:54:50;;;;;;;1.80;1.70;;;15.90;63.10;;;;;;4957276;28;20047;-19
2022/01/18 03:57:16;;;;;;;1.63;1.52;;;15.90;63.10;;;;;;4957993;28;20137;-19
2022/01/18 03:59:45;;;;;;;1.60;1.50;;;15.90;63.20;;;;;;4957274;28;20418;-21
2022/01/18 04:02:10;;;;;;;1.50;1.50;;;15.90;63.20;;;;;;4956884;28;20400;-18
2022/01/18 04:04:36;;;;;;;1.50;1.40;;;15.90;63.10;;;;;;4956317;28;20076;-19
2022/01/18 04:07:03;;;;;;;1.35;1.33;;;15.90;63.20;;;;;;4956806;28;20404;-21
2022/01/18 04:09:28;;;;;;;1.33;1.23;;;15.90;63.10;;;;;;4948277;28;20051;-18
2022/01/18 04:11:54;;;;;;;1.45;1.45;;;15.90;63.10;;;;;;4937151;28;20059;-18
2022/01/18 04:14:19;;;;;;;1.40;1.30;;;15.90;63.10;;;;;;4937706;28;20062;-20
2022/01/18 04:27:33;;;;;;;1.20;1.20;;;15.90;63.00;;;;;;4956382;28;20082;-20
2022/01/18 04:29:58;;;;;;;1.38;1.27;;;15.90;63.00;;;;;;4955264;28;20050;-18
2022/01/18 04:32:24;;;;;;;1.42;1.40;;;15.90;63.10;;;;;;4957068;28;20078;-22
2022/01/18 04:34:50;;;;;;;1.60;1.50;;;15.90;63.00;;;;;;4956424;28;20059;-18
2022/01/18 04:37:15;;;;;;;1.40;1.30;;;15.90;63.00;;;;;;4956957;28;20518;-20
2022/01/18 04:39:43;;;;;;;1.23;1.23;;;15.90;63.10;;;;;;4956183;28;20043;-21
2022/01/18 04:50:25;;;;;;;1.40;1.40;;;15.90;63.10;;;;;;4956474;28;20078;-21
2022/01/18 04:52:51;;;;;;;1.55;1.52;;;15.90;63.00;;;;;;4956311;28;20047;-21
2022/01/18 04:55:18;;;;;;;1.58;1.48;;;15.90;63.00;;;;;;4956870;28;20062;-18
2022/01/18 04:57:53;;;;;;;1.75;1.65;;;15.90;63.10;;;;;;4955105;28;20079;-19
2022/01/18 05:00:20;;;;;;;1.60;1.50;;;15.90;63.30;;;;;;4956737;28;20043;-20
2022/01/18 05:02:47;;;;;;;1.40;1.40;;;15.90;63.30;;;;;;4956405;28;20058;-21
2022/01/18 05:05:22;;;;;;;1.88;1.77;;;15.90;63.20;;;;;;4956820;28;20035;-21
2022/01/18 05:07:48;;;;;;;1.70;1.60;;;15.90;63.20;;;;;;4956221;28;20047;-22
2022/01/18 05:10:16;;;;;;;1.65;1.55;;;15.90;63.10;;;;;;4956678;28;20067;-19
2022/01/18 05:12:46;;;;;;;1.80;1.70;;;15.90;63.10;;;;;;4956054;28;20627;-22
2022/01/18 05:15:38;;;;;;;1.60;1.50;;;15.90;63.10;;;;;;4956042;28;20035;-22
2022/01/18 05:22:59;;;;;;;1.30;1.30;;;15.90;63.10;;;;;;4956038;28;20132;-23
2022/01/18 05:25:26;;;;;;;1.63;1.52;;;15.90;63.10;;;;;;4956148;28;20134;-20
2022/01/18 05:27:52;;;;;;;1.40;1.30;;;15.90;63.10;;;;;;4955979;28;20047;-21
2022/01/18 05:30:17;;;;;;;1.27;1.20;;;15.80;62.90;;;;;;4956521;28;20496;-22
2022/01/18 05:32:43;;;;;;;1.48;1.38;;;15.80;63.10;;;;;;4956191;28;20540;-20
2022/01/18 05:35:08;;;;;;;1.05;1.05;;;15.90;63.10;;;;;;4956057;28;20056;-21
2022/01/18 05:37:34;;;;;;;1.20;1.20;;;15.80;63.00;;;;;;4956420;28;20066;-21
2022/01/18 05:40:00;;;;;;;1.38;1.35;;;15.90;63.10;;;;;;4955819;28;20050;-20
2022/01/18 05:42:25;;;;;;;1.38;1.30;;;15.80;63.20;;;;;;4956506;28;20050;-21
2022/01/18 05:44:51;;;;;;;1.27;1.27;;;15.80;63.20;;;;;;4955908;28;20099;-23
2022/01/18 05:47:16;;;;;;;1.48;1.45;;;15.80;63.30;;;;;;4956565;28;20053;-21
2022/01/18 05:49:42;;;;;;;1.23;1.23;;;15.80;63.20;;;;;;4957061;28;20069;-21
2022/01/18 05:52:07;;;;;;;1.33;1.30;;;15.80;63.20;;;;;;4960060;28;20514;-23
2022/01/18 05:54:33;;;;;;;1.20;1.20;;;15.80;63.20;;;;;;4958973;28;20051;-22
2022/01/18 05:56:59;;;;;;;1.13;1.13;;;15.90;63.10;;;;;;4959272;28;20047;-22
2022/01/18 05:59:34;;;;;;;1.45;1.45;;;15.80;63.10;;;;;;4959821;28;20130;-19
2022/01/18 06:02:03;;;;;;;1.40;1.30;;;15.80;63.20;;;;;;4959284;28;20062;-20
2022/01/18 06:07:20;;;;;;;1.30;1.25;;;15.80;63.20;;;;;;4957958;28;20051;-21
2022/01/18 06:09:46;;;;;;;1.10;1.10;;;15.80;63.10;;;;;;4958934;28;20114;-19
2022/01/18 06:12:11;;;;;;;2.15;1.38;;;15.80;63.10;;;;;;4959767;28;20047;-20
2022/01/18 06:14:37;;;;;;;1.13;1.13;;;15.80;63.10;;;;;;4959637;28;20044;-21
2022/01/18 06:17:03;;;;;;;1.30;1.30;;;15.80;63.10;;;;;;4958628;28;20146;-21
2022/01/18 06:19:28;;;;;;;1.58;1.50;;;15.80;63.20;;;;;;4959481;28;20047;-22
2022/01/18 06:21:54;;;;;;;1.30;1.30;;;15.80;63.30;;;;;;4958423;28;20050;-21
2022/01/18 06:24:20;;;;;;;1.27;1.27;;;15.80;63.30;;;;;;4959114;28;20050;-21
2022/01/18 06:26:45;;;;;;;1.42;1.33;;;15.80;63.30;;;;;;4958622;28;20054;-21
2022/01/18 06:29:11;;;;;;;1.33;1.25;;;15.80;63.20;;;;;;4959436;28;20035;-19
2022/01/18 06:31:36;;;;;;;1.13;1.13;;;15.80;63.20;;;;;;4959342;28;20074;-23
2022/01/18 06:34:02;;;;;;;1.10;1.10;;;15.80;63.20;;;;;;4958723;28;20484;-20
2022/01/18 06:36:28;;;;;;;1.17;1.10;;;15.80;63.20;;;;;;4958605;28;20062;-19
2022/01/18 06:38:53;;;;;;;1.30;1.30;;;15.80;63.20;;;;;;4957593;28;20105;-21
2022/01/18 06:41:19;;;;;;;1.20;1.20;;;15.70;63.20;;;;;;4958763;28;20195;-21
2022/01/18 06:43:44;;;;;;;1.10;1.10;;;15.80;63.20;;;;;;4958386;28;20051;-21
2022/01/18 06:46:10;;;;;;;1.30;1.30;;;15.70;63.20;;;;;;4958961;28;20048;-20
2022/01/18 06:48:36;;;;;;;1.20;1.20;;;15.70;63.30;;;;;;4958686;28;20058;-18
2022/01/18 06:51:01;;;;;;;1.42;1.33;;;15.70;63.30;;;;;;4958169;28;20496;-21
2022/01/18 06:53:31;;;;;;;1.30;1.30;;;15.70;63.30;;;;;;4958763;28;20061;-21
2022/01/18 06:55:57;;;;;;;1.33;1.30;;;15.70;63.40;;;;;;4958152;28;20130;-21
2022/01/18 06:58:22;;;;;;;1.42;1.33;;;15.80;63.50;;;;;;4957813;28;20066;-19
2022/01/18 07:00:48;;;;;;;1.20;1.20;;;15.80;64.20;;;;;;4949418;28;20048;-21
2022/01/18 07:03:15;;;;;;;1.17;1.17;;;15.70;63.30;;;;;;4947315;28;20050;-20
2022/01/18 07:05:40;;;;;;;1.30;1.30;;;15.70;63.40;;;;;;4951355;28;20075;-18
2022/01/18 07:08:06;;;;;;;1.27;1.27;;;15.70;63.50;;;;;;4952092;28;20036;-18
2022/01/18 07:10:32;;;;;;;1.27;1.27;;;15.70;63.60;;;;;;4947439;28;20087;-22
2022/01/18 07:13:00;;;;;;;1.50;1.40;;;15.70;63.50;;;;;;4950710;28;20456;-21
2022/01/18 07:15:26;;;;;;;1.50;1.40;;;15.70;63.40;;;;;;4951620;28;20050;-22
2022/01/18 07:17:51;;;;;;;1.30;1.30;;;15.70;63.30;;;;;;4942295;28;20409;-20
2022/01/18 07:20:17;;;;;;;1.63;1.45;;;15.70;63.20;;;;;;4939428;28;20048;-21
2022/01/18 07:22:43;;;;;;;1.50;1.40;;;15.70;63.10;;;;;;4938912;28;20044;-21
2022/01/18 07:25:14;;;;;;;1.30;1.30;;;15.70;63.00;;;;;;4938502;28;20408;-21
2022/01/18 07:27:40;;;;;;;1.35;1.30;;;15.70;62.80;;;;;;4957081;28;20071;-21
2022/01/18 07:30:06;;;;;;;1.65;1.55;;;15.70;62.80;;;;;;4957623;28;20058;-20
2022/01/18 07:32:32;;;;;;;2.55;1.60;;;15.70;62.90;;;;;;4957631;28;20508;-20
2022/01/18 07:34:58;;;;;;;3.88;1.90;;;15.70;63.30;;;;;;4957483;28;20082;-21
2022/01/18 07:37:23;;;;;;;2.40;1.75;;;15.70;64.60;;;;;;4957964;28;20043;-21
2022/01/18 07:39:49;;;;;;;3.08;2.13;;;15.80;65.80;;;;;;4955758;28;20264;-19
2022/01/18 07:42:19;;;;;;;3.67;2.33;;;15.70;66.20;;;;;;4958040;28;20047;-21
2022/01/18 07:44:45;;;;;;;2.80;2.50;;;15.70;66.00;;;;;;4956640;28;20114;-22
2022/01/18 07:47:10;;;;;;;2.70;2.60;;;15.80;66.70;;;;;;4956901;28;20519;-19
2022/01/18 07:49:36;;;;;;;3.88;3.17;;;15.80;67.10;;;;;;4956801;28;20043;-19
2022/01/18 07:52:02;;;;;;;6.53;2.80;;;15.80;66.70;;;;;;4963451;28;20039;-20
2022/01/18 07:54:27;;;;;;;3.83;2.35;;;15.80;66.50;;;;;;4976686;28;20043;-21
2022/01/18 07:56:53;;;;;;;2.58;2.38;;;15.70;66.10;;;;;;4973924;28;20054;-21
2022/01/18 07:59:20;;;;;;;2.20;2.10;;;15.80;65.90;;;;;;4956608;28;20058;-22
2022/01/18 08:01:46;;;;;;;2.50;2.40;;;15.80;65.60;;;;;;4956399;28;20062;-17
2022/01/18 08:04:11;;;;;;;3.60;2.40;;;15.90;65.20;;;;;;4956733;28;20051;-22
2022/01/18 08:06:37;;;;;;;2.58;2.38;;;15.90;64.90;;;;;;4975943;28;20050;-20
2022/01/18 08:09:03;;;;;;;2.72;2.53;;;15.90;64.70;;;;;;4976071;28;20046;-20
2022/01/18 08:11:28;;;;;;;2.08;1.90;;;15.90;64.60;;;;;;4957351;28;20066;-21
2022/01/18 08:13:54;;;;;;;2.65;2.45;;;15.90;64.60;;;;;;4950132;28;20067;-20
2022/01/18 08:18:51;;;;;;;2.72;2.50;;;15.80;64.80;;;;;;4951064;28;20492;-20
2022/01/18 08:21:17;;;;;;;2.88;2.67;;;15.90;64.60;;;;;;4957348;28;20050;-21
2022/01/18 08:23:43;;;;;;;3.00;2.80;;;15.90;64.50;;;;;;4956760;28;20050;-21
2022/01/18 08:26:08;;;;;;;3.05;2.95;;;15.90;64.40;;;;;;4954291;28;20113;-21
2022/01/18 08:28:34;;;;;;;3.22;3.00;;;16.00;64.30;;;;;;4953658;28;20043;-18
2022/01/18 08:31:00;;;;;;;3.17;2.42;;;16.00;64.30;;;;;;4956488;28;20463;-18
2022/01/18 08:33:25;;;;;;;2.40;2.30;;;16.00;64.20;;;;;;4957361;28;20050;-22
2022/01/18 08:35:51;;;;;;;2.45;2.20;;;16.00;64.20;;;;;;4956213;28;20493;-24
2022/01/18 08:38:17;;;;;;;2.88;2.67;;;16.00;64.10;;;;;;4956118;28;20126;-19
2022/01/18 08:40:43;;;;;;;2.60;2.50;;;16.10;64.10;;;;;;4957062;28;20083;-18
2022/01/18 08:43:08;;;;;;;2.53;2.33;;;16.10;64.20;;;;;;4958345;29;20027;-21
2022/01/18 08:45:34;;;;;;;3.35;2.35;;;16.10;64.10;;;;;;4956420;28;20044;-21
2022/01/18 08:48:00;;;;;;;2.65;2.45;;;16.10;64.00;;;;;;4961912;28;20035;-21
2022/01/18 08:50:26;;;;;;;2.40;2.20;;;16.20;64.00;;;;;;4964321;28;20054;-20
2022/01/18 08:52:52;;;;;;;2.33;2.22;;;16.20;64.10;;;;;;4956848;28;20039;-19
2022/01/18 08:55:19;;;;;;;2.63;2.42;;;16.20;64.10;;;;;;4956410;28;20142;-19
2022/01/18 08:57:46;;;;;;;1.95;1.83;;;16.20;63.90;;;;;;4956384;28;20035;-18
2022/01/18 09:00:14;;;;;;;2.17;2.08;;;16.30;63.90;;;;;;4955650;28;20551;-19
2022/01/18 09:02:40;;;;;;;2.22;2.13;;;16.30;63.80;;;;;;4956986;28;20046;-18
2022/01/18 09:05:06;;;;;;;2.45;2.35;;;16.30;63.80;;;;;;4956185;28;20488;-18
2022/01/18 09:07:33;;;;;;;2.50;2.40;;;16.30;63.80;;;;;;4956317;28;20047;-21
2022/01/18 09:10:05;;;;;;;2.45;2.35;;;16.30;63.80;;;;;;4951000;28;20102;-22
2022/01/18 09:12:31;;;;;;;3.38;3.08;;;16.30;63.80;;;;;;4951939;28;20051;-21
2022/01/18 09:14:59;;;;;;;3.67;3.47;;;16.20;63.90;;;;;;4944650;28;20058;-21
2022/01/18 09:17:27;;;;;;;3.72;3.53;;;16.30;64.00;;;;;;4946692;28;20661;-21
2022/01/18 09:19:53;;;;;;;2.85;2.75;;;16.30;64.00;;;;;;4947755;28;20043;-22
2022/01/18 09:22:19;;;;;;;3.13;2.92;;;16.30;63.80;;;;;;4951495;28;20149;-20
2022/01/18 09:24:45;;;;;;;3.00;2.80;;;16.20;64.00;;;;;;4951072;28;20044;-19
2022/01/18 09:27:10;;;;;;;2.60;2.40;;;16.20;64.20;;;;;;4947879;28;20035;-21
2022/01/18 09:29:36;;;;;;;4.68;2.70;;;16.20;64.30;;;;;;4950366;28;20043;-20
2022/01/18 09:32:02;;;;;;;2.40;2.30;;;16.20;64.30;;;;;;4950291;28;20046;-20
2022/01/18 09:34:27;;;;;;;2.50;2.30;;;16.20;64.20;;;;;;4956982;28;20188;-21
2022/01/18 09:36:53;;;;;;;3.85;3.05;;;16.20;64.30;;;;;;4959875;28;20047;-20
2022/01/18 09:39:18;;;;;;;3.25;2.95;;;16.10;64.40;;;;;;4959037;28;20051;-21
2022/01/18 09:41:47;;;;;;;2.78;2.58;;;16.20;64.20;;;;;;4960036;28;20135;-19
2022/01/18 09:44:13;;;;;;;3.10;2.47;;;16.30;64.00;;;;;;4959482;28;20047;-18
2022/01/18 09:46:38;;;;;;;2.30;2.20;;;16.30;63.90;;;;;;4949067;28;20366;-20
2022/01/18 09:49:05;;;;;;;3.35;2.28;;;16.30;64.00;;;;;;4951212;28;20058;-21
2022/01/18 09:51:31;;;;;;;3.08;2.88;;;16.30;64.10;;;;;;4947843;28;20047;-19
2022/01/18 09:53:56;;;;;;;2.50;2.30;;;16.30;64.00;;;;;;4947828;28;20171;-21
2022/01/18 09:56:24;;;;;;;3.47;2.30;;;16.30;64.00;;;;;;4948495;28;20450;-21
2022/01/18 09:58:49;;;;;;;4.22;2.70;;;16.30;64.00;;;;;;4953249;28;20237;-19
2022/01/18 10:01:15;;;;;;;3.10;2.90;;;16.20;64.10;;;;;;4955657;28;20109;-21
2022/01/18 10:03:41;;;;;;;2.50;2.28;;;16.20;64.30;;;;;;4948715;28;20066;-21
2022/01/18 10:06:07;;;;;;;2.47;2.30;;;16.20;64.30;;;;;;4949865;28;20115;-21
2022/01/18 10:08:34;;;;;;;2.65;2.45;;;16.20;64.20;;;;;;4955014;28;20071;-22
2022/01/18 10:11:17;;;;;;;2.33;2.22;;;16.20;64.30;;;;;;4948420;28;20047;-20
2022/01/18 10:13:45;;;;;;;2.90;2.78;;;16.20;64.20;;;;;;4951673;28;20467;-20
2022/01/18 10:16:14;;;;;;;2.53;2.40;;;16.20;64.20;;;;;;4954720;28;20042;-19
2022/01/18 10:18:52;;;;;;;2.33;2.22;;;16.20;64.10;;;;;;4951401;28;20405;-19
2022/01/18 10:21:28;;;;;;;2.20;2.10;;;16.30;64.00;;;;;;4956587;28;20047;-21
2022/01/18 10:24:23;;;;;;;2.20;2.10;;;16.30;63.80;;;;;;4959236;28;20050;-21
2022/01/18 10:26:50;;;;;;;2.20;2.10;;;16.30;64.00;;;;;;4958587;28;20040;-21
2022/01/18 10:29:16;;;;;;;3.08;2.85;;;16.20;64.00;;;;;;4958242;28;20301;-20
2022/01/18 10:37:18;;;;;;;5.18;4.78;;;16.30;63.90;;;;;;4965474;28;20572;-21
2022/01/18 10:39:50;;;;;;;5.47;4.97;;;16.30;63.70;;;;;;4958815;28;20389;-21
2022/01/18 10:42:20;;;;;;;5.72;5.22;;;16.30;63.70;;;;;;4958422;28;20107;-20
2022/01/18 10:44:48;;;;;;;7.28;4.97;;;16.30;63.70;;;;;;4959128;28;20071;-21
2022/01/18 10:47:15;;;;;;;6.25;4.47;;;16.30;63.80;;;;;;4957644;28;20047;-20
2022/01/18 10:49:44;;;;;;;4.97;4.60;;;16.30;63.90;;;;;;4951265;28;20179;-19
2022/01/18 10:52:12;;;;;;;6.43;5.93;;;16.30;64.00;;;;;;4957989;28;20047;-22
2022/01/18 10:54:45;;;;;;;9.38;7.95;;;16.30;63.90;;;;;;4958916;28;20047;-20
2022/01/18 10:57:13;;;;;;;9.73;8.52;;;16.30;63.90;;;;;;4957800;28;20050;-20
2022/01/18 10:59:40;;;;;;;8.20;7.20;;;16.40;63.80;;;;;;4958521;28;20050;-21
2022/01/18 11:02:13;;;;;;;8.45;7.15;;;16.30;63.60;;;;;;4958095;28;20424;-20
2022/01/18 11:04:50;;;;;;;8.40;6.90;;;16.30;63.60;;;;;;4957342;28;20115;-22
2022/01/18 11:07:18;;;;;;;6.70;5.97;;;16.40;63.60;;;;;;4955682;28;20047;-19
2022/01/18 11:09:44;;;;;;;7.40;6.78;;;16.40;63.50;;;;;;4957027;28;20106;-21
2022/01/18 11:12:10;;;;;;;6.40;5.90;;;16.40;63.60;;;;;;4958115;28;20047;-18
2022/01/18 11:14:38;;;;;;;5.72;5.28;;;16.40;63.50;;;;;;4957072;28;20417;-18
2022/01/18 11:17:05;;;;;;;6.20;5.60;;;16.40;63.60;;;;;;4956551;28;20524;-19
2022/01/18 11:19:33;;;;;;;6.43;5.82;;;16.40;63.50;;;;;;4956859;28;20535;-20
2022/01/18 11:22:10;;;;;;;6.28;5.78;;;16.40;63.50;;;;;;4956859;28;20074;-21
2022/01/18 11:24:41;;;;;;;5.70;5.22;;;16.40;63.60;;;;;;4957528;28;20107;-22
2022/01/18 11:27:11;;;;;;;5.00;4.60;;;16.40;63.60;;;;;;4952524;28;20043;-19
2022/01/18 11:29:36;;;;;;;5.50;5.10;;;16.50;63.60;;;;;;4958027;28;20043;-20
2022/01/18 11:32:02;;;;;;;5.53;5.13;;;16.50;63.50;;;;;;4957645;28;20055;-17
2022/01/18 11:34:34;;;;;;;5.18;4.78;;;16.50;63.40;;;;;;4956656;28;20047;-19
2022/01/18 11:37:11;;;;;;;5.43;4.93;;;16.50;63.30;;;;;;4957626;28;20047;-20
2022/01/18 11:39:37;;;;;;;5.80;4.53;;;16.50;63.50;;;;;;4940820;28;20074;-21
2022/01/18 11:42:07;;;;;;;5.25;4.85;;;16.50;63.50;;;;;;4957429;28;20051;-22
2022/01/18 11:44:32;;;;;;;5.10;4.70;;;16.50;63.40;;;;;;4965639;28;20130;-18
2022/01/18 11:46:58;;;;;;;5.55;4.53;;;16.60;63.50;;;;;;4939774;28;20476;-21
2022/01/18 11:49:29;;;;;;;5.00;4.60;;;16.60;63.50;;;;;;4955880;28;20059;-21
2022/01/18 11:51:59;;;;;;;4.60;4.30;;;16.60;63.40;;;;;;4957511;28;20070;-19
2022/01/18 11:54:32;;;;;;;4.68;4.38;;;16.70;63.20;;;;;;4957160;28;20054;-20
2022/01/18 11:57:01;;;;;;;4.65;4.25;;;16.70;63.40;;;;;;4957816;28;20050;-20
2022/01/18 11:59:34;;;;;;;4.60;4.30;;;16.70;63.20;;;;;;4937648;28;20127;-20
2022/01/18 12:02:00;;;;;;;3.97;3.67;;;16.70;63.20;;;;;;4938494;28;20099;-21
2022/01/18 12:04:54;;;;;;;4.22;3.92;;;16.70;63.20;;;;;;4938028;28;20048;-18
2022/01/18 12:07:36;;;;;;;4.78;3.70;;;16.80;63.20;;;;;;4950772;28;20134;-22
2022/01/18 12:10:09;;;;;;;4.35;4.05;;;16.80;63.20;;;;;;4591331;28;9999988;-19
2022/01/18 12:12:41;;;;;;;4.38;4.07;;;16.70;63.90;;;;;;4938044;28;20057;-21
2022/01/18 12:15:16;;;;;;;5.13;3.60;;;16.80;63.00;;;;;;4953326;28;20040;-20
2022/01/18 12:17:54;;;;;;;4.60;4.30;;;16.80;62.90;;;;;;4953962;28;20047;-20
2022/01/18 12:20:35;;;;;;;4.10;3.85;;;16.80;62.90;;;;;;4952565;28;20105;-20
2022/01/18 12:23:02;;;;;;;4.10;3.63;;;16.80;63.00;;;;;;4947996;28;20050;-20
2022/01/18 12:25:30;;;;;;;3.80;3.50;;;16.80;62.80;;;;;;4947545;28;20534;-21
2022/01/18 12:28:01;;;;;;;3.28;3.08;;;16.80;62.80;;;;;;4944111;28;20043;-19
2022/01/18 12:31:24;;;;;;;3.75;3.45;;;16.80;62.90;;;;;;4947816;28;20067;-19
2022/01/18 12:33:19;;;;;;;3.47;3.28;;;16.80;62.80;;;;;;4934328;28;20050;-21
2022/01/18 12:35:45;;;;;;;3.20;3.00;;;16.80;62.80;;;;;;4953516;28;20158;-21
2022/01/18 12:38:23;;;;;;;3.42;3.13;;;16.80;62.90;;;;;;4935646;28;20110;-21
2022/01/18 12:40:49;;;;;;;3.47;3.28;;;16.90;62.70;;;;;;4954530;28;20078;-17
2022/01/18 12:45:42;;;;;;;3.47;3.25;;;16.90;62.30;;;;;;4956268;28;20039;-21
2022/01/18 12:48:10;;;;;;;3.42;3.22;;;16.80;62.50;;;;;;4956110;28;20530;-20
2022/01/18 12:50:44;;;;;;;4.72;2.85;;;16.80;62.40;;;;;;4954415;28;20047;-18
2022/01/18 12:53:21;;;;;;;3.35;3.08;;;16.80;62.30;;;;;;4953707;28;20074;-21
2022/01/18 12:55:57;;;;;;;2.95;2.75;;;16.80;62.30;;;;;;4953001;28;20054;-20
2022/01/18 12:58:34;;;;;;;3.15;2.95;;;16.80;62.40;;;;;;4946358;28;20095;-21
2022/01/18 13:01:20;;;;;;;3.22;3.03;;;16.80;62.20;;;;;;4955103;28;20159;-20
2022/01/18 13:03:48;;;;;;;3.45;2.85;;;16.80;62.20;;;;;;4942954;28;20118;-19
2022/01/18 13:06:18;;;;;;;3.25;3.05;;;16.80;63.00;;;;;;4952344;28;20070;-21
2022/01/18 13:09:10;;;;;;;3.00;2.80;;;16.80;62.20;;;;;;4947982;28;20071;-21
2022/01/18 13:11:38;;;;;;;2.83;2.72;;;16.80;62.20;;;;;;4956716;28;20043;-21
2022/01/18 13:14:10;;;;;;;2.95;2.75;;;16.70;62.30;;;;;;4953997;28;20463;-20
2022/01/18 13:27:25;;;;;;;2.65;2.50;;;16.80;62.10;;;;;;4950965;28;20125;-22
2022/01/18 13:29:52;;;;;;;3.03;2.83;;;16.70;62.40;;;;;;4955792;28;20047;-21
2022/01/18 13:32:21;;;;;;;2.58;2.38;;;16.70;62.20;;;;;;4954554;28;20090;-21
2022/01/18 13:34:51;;;;;;;3.05;2.85;;;16.80;62.40;;;;;;4949371;28;20051;-19
2022/01/18 13:37:18;;;;;;;2.78;2.58;;;16.70;62.10;;;;;;4952882;28;20054;-17
2022/01/18 13:39:49;;;;;;;2.47;2.20;;;16.70;62.20;;;;;;4982393;28;20086;-21
2022/01/18 13:42:17;;;;;;;2.50;2.40;;;16.60;62.30;;;;;;4955011;28;20058;-19
2022/01/18 13:45:16;;;;;;;2.85;2.65;;;16.70;62.20;;;;;;4954806;28;20476;-20
2022/01/18 13:47:58;;;;;;;2.20;2.10;;;16.70;62.10;;;;;;4954275;28;20051;-22
2022/01/18 13:50:42;;;;;;;2.53;2.38;;;16.70;61.90;;;;;;4957392;28;20467;-17
2022/01/18 13:53:10;;;;;;;2.13;2.03;;;16.80;62.00;;;;;;4951717;28;20443;-20
2022/01/18 13:55:37;;;;;;;2.72;2.53;;;16.70;62.20;;;;;;4959221;28;20594;-19
2022/01/18 13:58:03;;;;;;;25.17;2.75;;;16.70;62.20;;;;;;4958396;28;20102;-19
2022/01/18 14:00:29;;;;;;;2.60;2.40;;;16.70;62.10;;;;;;4959708;28;20079;-18
2022/01/18 14:02:55;;;;;;;2.35;2.25;;;16.70;62.40;;;;;;4958118;28;20070;-22
2022/01/18 14:05:23;;;;;;;3.03;2.72;;;16.70;62.00;;;;;;4955339;28;20055;-19
2022/01/18 14:07:48;;;;;;;3.15;2.42;;;16.60;62.20;;;;;;4955377;28;20043;-20
2022/01/18 14:10:14;;;;;;;2.80;2.42;;;16.70;62.20;;;;;;4952690;28;20043;-19
2022/01/18 14:12:40;;;;;;;2.25;2.15;;;16.70;62.20;;;;;;4951625;28;21308;-19
2022/01/18 14:15:06;;;;;;;2.55;2.30;;;16.70;62.30;;;;;;4947946;28;20444;-19
2022/01/18 14:17:32;;;;;;;2.47;2.17;;;16.70;62.20;;;;;;4951358;28;20849;-20
2022/01/18 14:20:08;;;;;;;2.20;2.10;;;16.70;62.10;;;;;;4949027;28;20055;-21
2022/01/18 14:22:38;;;;;;;2.17;1.98;;;16.60;62.20;;;;;;4948576;28;20039;-18
2022/01/18 14:25:05;;;;;;;2.00;1.90;;;16.60;62.20;;;;;;4954156;28;20075;-20